Terminal Aerodrome Forecast
Issued by NWS

Home | Current Version | Previous Version | Text Only | Print | Product List | Glossary Off
Versions: 1 2 3 4 5 6 7 8 9 10 11 12 13 14 15

000
FTUS43 KGRB 250205 AAB
TAFCWA
TAF AMD
KCWA 250205Z 2502/2524 35010G16KT P6SM VCSH BKN060
      TEMPO 2502/2503 6SM -SHRA BKN040
     FM250400 01005KT P6SM SKC
     FM251400 33008G15KT P6SM SKC
     FM252000 30006KT P6SM SKC
      AMD LTD TO CLD VIS AND WIND 2503/2511=

USA.gov is the U.S. government's official web portal to all federal, state and local government web resources and services.